createdAt,value
2023-01-17T00:00:08.675Z,12.93
2023-01-17T00:02:35.788Z,12.27
2023-01-17T00:08:39.970Z,9.63
2023-01-17T00:11:06.998Z,9.68
2023-01-17T00:13:34.029Z,13.07
2023-01-17T00:16:01.106Z,11.75
2023-01-17T05:51:58.360Z,13.98
2023-01-17T05:54:28.659Z,16.08
2023-01-17T05:56:55.620Z,14.25
2023-01-17T05:59:35.997Z,16.13
2023-01-17T06:02:03.891Z,21.67
2023-01-17T06:04:31.431Z,18.98
2023-01-17T06:06:58.576Z,16.02
2023-01-17T06:09:27.769Z,16.63
2023-01-17T06:11:55.200Z,22.63
2023-01-17T06:17:41.663Z,18.48
2023-01-17T06:20:10.801Z,17.80
2023-01-17T06:22:41.363Z,22.08
2023-01-17T06:25:08.763Z,18.90
2023-01-17T06:27:38.268Z,17.95
2023-01-17T06:30:06.204Z,19.90
2023-01-17T06:32:33.688Z,26.95
2023-01-17T06:53:50.129Z,20.48
2023-01-17T07:02:34.417Z,21.00
2023-01-17T07:05:05.754Z,16.40
2023-01-17T07:07:36.259Z,24.90
2023-01-17T07:10:05.405Z,18.38
2023-01-17T07:12:35.032Z,19.88
2023-01-17T07:33:40.101Z,20.25
2023-01-17T07:36:11.231Z,26.75
2023-01-17T07:38:39.542Z,24.50
2023-01-17T07:41:07.007Z,24.27
2023-01-17T07:43:35.771Z,27.23
2023-01-17T07:46:06.084Z,29.25
2023-01-17T07:48:35.535Z,32.10
2023-01-17T07:51:03.047Z,30.30
2023-01-17T07:53:32.079Z,28.92
2023-01-17T07:56:07.696Z,27.17
2023-01-17T07:58:38.790Z,25.33
2023-01-17T08:04:29.353Z,38.10
2023-01-17T08:06:56.701Z,26.52
2023-01-17T08:09:28.367Z,31.95
2023-01-17T08:18:04.153Z,26.75
2023-01-17T08:20:40.480Z,26.50
2023-01-17T08:23:26.967Z,28.98
2023-01-17T08:26:14.787Z,23.05
2023-01-17T08:28:45.931Z,25.40
2023-01-17T08:31:29.301Z,34.05
2023-01-17T08:33:58.987Z,25.17
2023-01-17T08:36:29.276Z,30.75
2023-01-17T08:39:08.827Z,23.92
2023-01-17T08:41:36.961Z,29.52
2023-01-17T08:44:13.333Z,33.70
2023-01-17T08:46:44.880Z,32.25
2023-01-17T08:49:27.714Z,26.40
2023-01-17T08:54:47.019Z,31.15
2023-01-17T08:57:28.659Z,32.80
2023-01-17T09:00:07.621Z,34.70
2023-01-17T09:02:52.215Z,33.70
2023-01-17T09:05:37.259Z,36.67
2023-01-17T09:08:16.736Z,35.58
2023-01-17T10:30:48.679Z,23.52
2023-01-17T10:33:43.325Z,21.67
2023-01-17T10:36:25.043Z,23.50
2023-01-17T10:39:04.559Z,18.90
2023-01-17T10:41:43.872Z,19.05
2023-01-17T10:47:49.219Z,22.15
2023-01-17T10:50:33.758Z,20.27
2023-01-17T10:53:39.724Z,22.20
2023-01-17T10:56:14.709Z,18.15
2023-01-17T11:05:16.581Z,20.92
2023-01-17T11:23:06.034Z,15.57
2023-01-17T11:34:33.790Z,13.98
2023-01-17T11:37:21.180Z,12.18
2023-01-17T11:39:49.004Z,12.32
2023-01-17T11:42:34.158Z,11.38
2023-01-17T11:45:40.841Z,17.15
2023-01-17T11:48:08.261Z,14.25
2023-01-17T11:51:25.973Z,18.75
2023-01-17T11:53:55.011Z,12.63
2023-01-17T11:56:42.811Z,12.88
2023-01-17T11:59:24.491Z,12.45
2023-01-17T12:02:16.685Z,11.73
2023-01-17T12:05:06.311Z,12.93
2023-01-17T12:08:01.401Z,12.82
2023-01-17T12:10:56.658Z,16.33
2023-01-17T12:13:45.568Z,11.93
2023-01-17T12:16:31.963Z,13.57
2023-01-17T12:19:05.083Z,10.20
2023-01-17T12:22:00.525Z,10.43
2023-01-17T12:24:36.985Z,11.43
2023-01-17T12:27:36.325Z,14.07
2023-01-17T12:30:23.559Z,15.73
2023-01-17T12:33:40.744Z,10.80
2023-01-17T12:36:48.431Z,11.13
2023-01-17T12:39:18.793Z,12.93
2023-01-17T12:41:55.063Z,11.32
2023-01-17T12:44:44.921Z,17.17
2023-01-17T12:47:16.300Z,22.63
2023-01-17T12:50:15.328Z,12.57
2023-01-17T12:52:48.662Z,9.65
2023-01-17T12:55:29.373Z,11.45
2023-01-17T12:58:02.102Z,13.48
2023-01-17T13:00:34.113Z,17.77
2023-01-17T13:03:36.410Z,13.52
2023-01-17T13:06:06.226Z,8.90
2023-01-17T13:08:48.473Z,12.65
2023-01-17T13:11:23.255Z,16.35
2023-01-17T13:13:54.649Z,8.23
2023-01-17T13:16:29.954Z,8.20
2023-01-17T13:19:05.023Z,8.70
2023-01-17T13:21:37.685Z,11.98
2023-01-17T13:24:35.635Z,6.80
2023-01-17T13:27:07.038Z,7.45
2023-01-17T13:29:59.979Z,9.60
2023-01-17T13:32:53.082Z,8.68
2023-01-17T13:35:51.749Z,5.40
2023-01-17T13:41:45.119Z,8.32
2023-01-17T13:44:33.794Z,6.72
2023-01-17T13:47:08.283Z,8.48
2023-01-17T13:49:43.487Z,6.43
2023-01-17T13:55:46.635Z,9.52
2023-01-17T13:58:29.475Z,8.23
2023-01-17T14:01:01.907Z,9.25
2023-01-17T14:03:55.935Z,9.05
2023-01-17T14:06:47.421Z,8.75
2023-01-17T14:09:20.825Z,11.13
2023-01-17T14:12:06.076Z,12.10
2023-01-17T14:14:41.384Z,9.93
2023-01-17T14:17:37.131Z,11.05
2023-01-17T14:20:13.801Z,9.60
2023-01-17T14:22:53.797Z,14.25
2023-01-17T14:28:33.099Z,7.72
2023-01-17T14:31:03.538Z,5.95
2023-01-17T14:33:38.793Z,11.15
2023-01-17T14:36:14.700Z,23.65
2023-01-17T14:38:44.640Z,12.48
2023-01-17T14:41:25.257Z,10.43
2023-01-17T14:43:57.017Z,6.47
2023-01-17T14:46:31.989Z,8.13
2023-01-17T14:49:06.383Z,9.77
2023-01-17T14:51:35.722Z,8.90
2023-01-17T14:54:06.432Z,9.38
2023-01-17T14:56:34.011Z,10.15
2023-01-17T14:59:24.211Z,7.50
2023-01-17T15:02:07.186Z,10.20
2023-01-17T15:04:44.612Z,9.18
2023-01-17T15:07:17.285Z,9.73
2023-01-17T15:09:52.069Z,13.70
2023-01-17T15:12:19.704Z,7.20
2023-01-17T15:14:47.921Z,10.45
2023-01-17T15:17:26.422Z,8.77
2023-01-17T15:20:01.834Z,7.22
2023-01-17T15:22:30.066Z,11.50
2023-01-17T15:24:58.672Z,20.42
2023-01-17T15:27:26.736Z,14.30
2023-01-17T15:29:59.468Z,15.95
2023-01-17T15:32:38.920Z,8.03
2023-01-17T15:35:08.361Z,14.00
2023-01-17T15:37:42.474Z,9.05
2023-01-17T15:40:24.951Z,6.70
2023-01-17T15:42:58.526Z,9.55
2023-01-17T15:45:33.313Z,12.35
2023-01-17T15:48:31.883Z,5.03
2023-01-17T15:50:59.429Z,6.10
2023-01-17T15:53:34.253Z,7.05
2023-01-17T15:56:18.826Z,6.32
2023-01-17T15:58:51.115Z,6.88
2023-01-17T16:01:25.665Z,8.63
2023-01-17T16:06:50.372Z,8.40
2023-01-17T16:09:24.470Z,8.00
2023-01-17T16:38:46.516Z,8.15
2023-01-17T16:41:24.226Z,9.57
2023-01-17T16:44:00.902Z,14.73
2023-01-17T16:46:35.906Z,15.90
2023-01-17T16:49:38.315Z,8.90
2023-01-17T16:52:05.839Z,6.18
2023-01-17T16:54:40.872Z,10.40
2023-01-17T17:06:03.523Z,13.82
2023-01-17T17:08:35.495Z,10.80
2023-01-17T17:11:26.082Z,11.48
2023-01-17T17:16:45.221Z,11.95
2023-01-17T17:19:23.006Z,13.43
2023-01-17T17:21:59.841Z,11.68
2023-01-17T17:24:29.759Z,11.82
2023-01-17T17:27:19.833Z,11.48
2023-01-17T17:29:47.583Z,13.07
2023-01-17T17:32:14.594Z,11.63
2023-01-17T17:34:41.481Z,16.45
2023-01-17T17:37:08.470Z,12.55
2023-01-17T17:39:35.468Z,16.90
2023-01-17T17:42:02.771Z,9.32
2023-01-17T17:45:26.063Z,18.13
2023-01-17T17:48:03.232Z,12.57
2023-01-17T17:59:56.820Z,17.60
2023-01-17T18:29:59.032Z,17.92
2023-01-17T18:32:30.774Z,16.90
2023-01-17T18:35:32.717Z,26.97
2023-01-17T18:38:02.852Z,17.50
2023-01-17T18:41:04.930Z,18.17
2023-01-17T19:18:37.948Z,27.60
2023-01-17T19:21:10.462Z,25.00
2023-01-17T19:23:38.736Z,28.98
2023-01-17T19:31:53.391Z,30.77
2023-01-17T19:35:05.083Z,28.80
2023-01-17T19:37:32.715Z,36.63
2023-01-17T19:40:00.091Z,33.10
2023-01-17T19:45:40.877Z,33.50
2023-01-17T19:48:12.828Z,36.40
2023-01-17T19:50:40.650Z,34.28
2023-01-17T19:53:07.891Z,37.30
2023-01-17T19:55:39.805Z,28.20
2023-01-17T20:00:46.240Z,36.13
2023-01-17T20:03:20.450Z,28.38
2023-01-17T20:05:56.728Z,24.55
2023-01-17T20:08:25.665Z,30.60
2023-01-17T20:10:53.539Z,34.97
2023-01-17T20:13:30.321Z,33.78
2023-01-17T20:16:02.143Z,32.22
2023-01-17T20:18:31.483Z,30.95
2023-01-17T20:21:14.186Z,39.25
2023-01-17T20:23:52.378Z,31.08
2023-01-17T20:26:35.136Z,33.95
2023-01-17T20:31:40.029Z,35.05
2023-01-17T20:37:09.862Z,26.13
2023-01-17T20:39:39.683Z,33.97
2023-01-17T20:42:10.858Z,32.58
2023-01-17T20:44:37.925Z,35.10
2023-01-17T20:47:07.488Z,34.78
2023-01-17T20:49:34.505Z,46.60
2023-01-17T20:52:01.927Z,42.28
2023-01-17T20:54:29.927Z,50.42
2023-01-17T20:57:15.150Z,37.30
2023-01-17T20:59:42.220Z,38.88
2023-01-17T21:02:10.760Z,37.90
2023-01-17T21:04:39.671Z,33.08
2023-01-17T21:07:06.997Z,39.03
2023-01-17T21:09:34.358Z,33.72
2023-01-17T21:12:01.676Z,39.05
2023-01-17T21:14:29.915Z,55.63
2023-01-17T21:16:56.883Z,59.60
2023-01-17T21:19:24.004Z,41.63
2023-01-17T21:21:51.897Z,45.95
2023-01-17T21:24:20.786Z,41.30
2023-01-17T21:26:48.743Z,41.90
2023-01-17T21:29:16.213Z,41.28
2023-01-17T21:31:43.696Z,46.10
2023-01-17T21:34:12.112Z,38.90
2023-01-17T21:39:29.314Z,37.72
2023-01-17T21:41:59.228Z,39.08
2023-01-17T21:44:38.873Z,46.03
2023-01-17T21:47:07.152Z,34.80
2023-01-17T21:49:34.092Z,44.45
2023-01-17T21:52:01.137Z,35.72
2023-01-17T21:54:52.248Z,39.45
2023-01-17T21:57:40.743Z,38.70
2023-01-17T22:00:15.176Z,39.70
2023-01-17T22:02:54.201Z,37.50
2023-01-17T22:05:21.370Z,39.25
2023-01-17T22:08:11.021Z,35.90
2023-01-17T22:10:46.363Z,37.33
2023-01-17T22:13:20.195Z,32.08
2023-01-17T22:16:06.820Z,35.70
2023-01-17T22:18:37.686Z,31.27
2023-01-17T22:21:25.663Z,28.70
2023-01-17T22:23:56.732Z,37.88
2023-01-17T22:26:28.641Z,46.23
2023-01-17T22:28:57.431Z,40.65
2023-01-17T22:31:29.582Z,41.00
2023-01-17T22:34:01.708Z,36.20
2023-01-17T22:36:33.408Z,41.33
2023-01-17T22:39:03.138Z,32.28
2023-01-17T22:41:34.043Z,29.83
2023-01-17T22:44:03.661Z,29.02
2023-01-17T22:46:33.431Z,28.17
2023-01-17T22:49:00.569Z,26.15
2023-01-17T22:51:29.916Z,37.40
2023-01-17T22:54:00.366Z,31.00
2023-01-17T22:56:32.947Z,24.52
2023-01-17T23:00:10.235Z,27.25
2023-01-17T23:02:44.391Z,24.15
2023-01-17T23:05:11.673Z,26.27
2023-01-17T23:07:53.229Z,27.30
2023-01-17T23:10:39.684Z,40.75
2023-01-17T23:13:11.227Z,34.50
2023-01-17T23:16:09.766Z,30.55
2023-01-17T23:19:04.583Z,27.30
2023-01-17T23:21:55.460Z,30.10
2023-01-17T23:24:22.525Z,35.33
2023-01-17T23:27:09.818Z,31.13
2023-01-17T23:29:37.001Z,25.00
2023-01-17T23:32:04.069Z,29.77
2023-01-17T23:34:31.956Z,28.25
2023-01-17T23:36:58.925Z,32.13
2023-01-17T23:39:27.949Z,29.85
2023-01-17T23:45:05.575Z,30.17
2023-01-17T23:47:33.008Z,35.08
2023-01-17T23:50:00.836Z,25.13
2023-01-17T23:52:27.850Z,27.33
2023-01-17T23:54:54.887Z,24.75
2023-01-17T23:57:22.173Z,27.33
2023-01-17T23:59:49.381Z,30.85
